ROMMA est une association bénévole à but non lucratif. Votre soutien est indispensable : ADHERER à ROMMA ou FAIRE un DON

Le Versoud - (38, Isère)

Vallée du Grésivaudan (220 m)   Longitude: 05° 51' 44" E   Latitude: 45° 13' 06" N Station partenaire n°6
 

Détail journalier du     <<     >>

Température Humidité Pression Vent Dir Rafale Dir. rafale Ensol.
Heure (°C) (%) (hPa) (km/h) (km/h) (min)
01:00 1.791102100---0
02:00 1.992102100---0
03:00 1.893102102ENE0
04:00 1.892102100---0
05:00 1.892102000---0
06:00 1.993102100---0
07:00 2.194102100---0
08:00 1.994102100---0
09:00 2.295102105ENE0
10:00 2.795102100---0
11:00 3.895102100---0
12:00 4.992102102ENE0
13:00 5.792102100---0
14:00 6.789102006ENE10
15:00 8.083102006ENE25
16:00 8.679102008ENE55
17:00 7.982102006ENE30
18:00 7.187102000---5
19:00 6.290102000---0
20:00 5.890102100---0
21:00
22:00
23:00
minuit

Graphique du 26-01-2020

 

Serveur OMMA